Lockport, NY

6:22 PM EDT on May 05, 2015 (GMT -0400)
Buffalo Niagara International | | Change Station
CLOSE
Current Station
Airport
Location: Buffalo,
Elevation: 702 ft
Nearby Weather Stations

Elev 702 ft 42.94 °N, 78.74 °W | Updated 28 minutes ago

Overcast
Overcast
65 °F
Feels Like 65 °F
N
4
Wind Variable Wind from NNE

Today
High -- | Low -- °F
--% Chance of Precip.
Yesterday
High -- | Low -- °F
Precip. -- in
6:03 AM 8:20 PM
Full, 97% visible
Pressure 30.25 in
Visibility 10.0 miles
Clouds Overcast 5500 ft
Dew Point 50 °F
Humidity 58%
Rainfall 0.00 in
Snow Depth Not available.
UV 1 out of 12
Pollen 8.80 out of 12
Air Quality Not available.
Flu Activity Widespread
METAR KBUF 052154Z 03003KT 10SM OVC055 18/10 A3024 RMK AO2 SLP242 SHRA VC SW T01830100

More Conditions Fewer Conditions

Pressure 30.25 in
Visibility 10.0 miles
Clouds Overcast 5500 ft
Dew Point 50 °F
Humidity 58%
Rainfall 0.00 in
Snow Depth Not available.
UV 1 out of 12
Pollen 8.80 out of 12
Air Quality Not available.
Flu Activity Widespread
METAR KBUF 052154Z 03003KT 10SM OVC055 18/10 A3024 RMK AO2 SLP242 SHRA VC SW T01830100

More Conditions Fewer Conditions

10-Day Weather Forecast

Almanac

Astronomy

May. 05, 2015 Rise Set
Actual Time
Civil Twilight
Nautical Twilight
Astronomical Twilight
Moon
Length of Visible Light
Length of Day
Tomorrow will be .
, % of the Moon is Illuminated

Today's Extremes

State Highs State Lows

Community

WunderPhotos

Upload Photos

1,818,998 photos uploaded!

WunderBlogs® & News

Nearby

Air Quality

  Air Quality AQ Index Pollutant
Not available.

Snow Depth

Station Depth Elevation

Earthquake Activity

City Distance Mag. Time & Date
Minimum magnitude displayed is 2.5.

Coastal Water Temperatures

Place Temperature

Stations

Nearby Weather Stations

Station Location Temp. Windchill Dew Point Humidity Wind Precip. Elev Updated Type